METAR Data
IDs: Format: Raw Decoded Include TAF

Data at: 1411 UTC 14 Dec 2019

METAR for:KSPB (Scappoose Ind Airpar, OR, US)
Text:KSPB 141353Z AUTO 00000KT 8SM BKN014 OVC050 04/03 A3004 RMK AO2 RAB33E52 SLP172 P0000 T00390033
Temperature: 3.9°C ( 39°F)
Dewpoint: 3.3°C ( 38°F) [RH = 96%]
Pressure (altimeter):30.04 inches Hg (1017.4 mb) [Sea level pressure: 1017.2 mb]
Winds:calm
Visibility: 8 sm ( 13 km)
Ceiling:1400 feet AGL
Clouds: broken clouds at 1400 feet AGL, overcast cloud deck at 5000 feet AGL
QC Flag:automated observation with no human augmentation